sensor_id;sensor_type;location;lat;lon;timestamp;temperature;humidity
58993;DHT22;44782;0.000;0.000;2022-11-30T00:00:58;15.20;59.30
58993;DHT22;44782;0.000;0.000;2022-11-30T00:03:14;15.20;59.30
58993;DHT22;44782;0.000;0.000;2022-11-30T00:05:30;15.10;59.30
58993;DHT22;44782;0.000;0.000;2022-11-30T00:07:45;15.10;59.30
58993;DHT22;44782;0.000;0.000;2022-11-30T00:10:01;15.10;59.30
58993;DHT22;44782;0.000;0.000;2022-11-30T00:12:17;15.10;59.20
58993;DHT22;44782;0.000;0.000;2022-11-30T00:14:33;15.10;59.30
58993;DHT22;44782;0.000;0.000;2022-11-30T00:16:48;15.10;59.20
58993;DHT22;44782;0.000;0.000;2022-11-30T00:19:04;15.10;59.30
58993;DHT22;44782;0.000;0.000;2022-11-30T00:21:19;15.10;59.30
58993;DHT22;44782;0.000;0.000;2022-11-30T00:23:37;15.00;59.20
58993;DHT22;44782;0.000;0.000;2022-11-30T00:25:53;15.00;59.20
58993;DHT22;44782;0.000;0.000;2022-11-30T00:28:09;15.00;59.20
58993;DHT22;44782;0.000;0.000;2022-11-30T00:30:24;15.00;59.20
58993;DHT22;44782;0.000;0.000;2022-11-30T00:32:40;15.00;59.20
58993;DHT22;44782;0.000;0.000;2022-11-30T00:34:55;15.00;59.20
58993;DHT22;44782;0.000;0.000;2022-11-30T00:37:11;15.00;59.20
58993;DHT22;44782;0.000;0.000;2022-11-30T00:39:27;15.00;59.20
58993;DHT22;44782;0.000;0.000;2022-11-30T00:41:42;15.00;59.30
58993;DHT22;44782;0.000;0.000;2022-11-30T00:43:58;14.90;59.20
58993;DHT22;44782;0.000;0.000;2022-11-30T00:46:14;14.90;59.20
58993;DHT22;44782;0.000;0.000;2022-11-30T00:48:29;14.90;59.20
58993;DHT22;44782;0.000;0.000;2022-11-30T00:50:47;14.90;59.20
58993;DHT22;44782;0.000;0.000;2022-11-30T00:53:03;14.90;59.10
58993;DHT22;44782;0.000;0.000;2022-11-30T00:55:18;14.90;59.20
58993;DHT22;44782;0.000;0.000;2022-11-30T00:57:35;14.90;59.20
58993;DHT22;44782;0.000;0.000;2022-11-30T00:59:51;14.80;59.10
58993;DHT22;44782;0.000;0.000;2022-11-30T01:02:06;14.80;59.10
58993;DHT22;44782;0.000;0.000;2022-11-30T01:04:22;14.80;59.10
58993;DHT22;44782;0.000;0.000;2022-11-30T01:06:38;14.80;59.10
58993;DHT22;44782;0.000;0.000;2022-11-30T01:08:54;14.80;59.10
58993;DHT22;44782;0.000;0.000;2022-11-30T01:11:35;14.80;59.10
58993;DHT22;44782;0.000;0.000;2022-11-30T01:13:51;14.80;58.90
58993;DHT22;44782;0.000;0.000;2022-11-30T01:16:09;14.80;59.20
58993;DHT22;44782;0.000;0.000;2022-11-30T01:18:25;14.80;59.20
58993;DHT22;44782;0.000;0.000;2022-11-30T01:20:42;14.80;59.20
58993;DHT22;44782;0.000;0.000;2022-11-30T01:22:57;14.70;59.10
58993;DHT22;44782;0.000;0.000;2022-11-30T01:25:13;14.70;59.10
58993;DHT22;44782;0.000;0.000;2022-11-30T01:27:29;14.70;59.10
58993;DHT22;44782;0.000;0.000;2022-11-30T01:29:44;14.70;59.10
58993;DHT22;44782;0.000;0.000;2022-11-30T01:34:19;14.70;59.20
58993;DHT22;44782;0.000;0.000;2022-11-30T01:36:35;14.70;59.10
58993;DHT22;44782;0.000;0.000;2022-11-30T01:38:55;14.70;59.20
58993;DHT22;44782;0.000;0.000;2022-11-30T01:41:13;14.60;59.10
58993;DHT22;44782;0.000;0.000;2022-11-30T01:45:56;14.60;59.00
58993;DHT22;44782;0.000;0.000;2022-11-30T01:48:11;14.60;59.20
58993;DHT22;44782;0.000;0.000;2022-11-30T01:50:30;14.60;59.10
58993;DHT22;44782;0.000;0.000;2022-11-30T01:52:55;14.60;59.10
58993;DHT22;44782;0.000;0.000;2022-11-30T01:55:24;14.50;59.00
58993;DHT22;44782;0.000;0.000;2022-11-30T01:57:53;14.50;59.10
58993;DHT22;44782;0.000;0.000;2022-11-30T02:00:12;14.50;59.10
58993;DHT22;44782;0.000;0.000;2022-11-30T02:02:49;14.50;59.10
58993;DHT22;44782;0.000;0.000;2022-11-30T02:05:07;14.50;59.10
58993;DHT22;44782;0.000;0.000;2022-11-30T02:07:23;14.50;59.20
58993;DHT22;44782;0.000;0.000;2022-11-30T02:09:42;14.50;59.20
58993;DHT22;44782;0.000;0.000;2022-11-30T02:11:58;14.50;59.10
58993;DHT22;44782;0.000;0.000;2022-11-30T02:16:54;14.50;59.20
58993;DHT22;44782;0.000;0.000;2022-11-30T02:21:44;14.40;59.10
58993;DHT22;44782;0.000;0.000;2022-11-30T02:29:34;14.40;59.00
58993;DHT22;44782;0.000;0.000;2022-11-30T02:34:14;14.40;59.10
58993;DHT22;44782;0.000;0.000;2022-11-30T02:36:32;14.40;59.20
58993;DHT22;44782;0.000;0.000;2022-11-30T02:38:48;14.30;59.10
58993;DHT22;44782;0.000;0.000;2022-11-30T02:41:04;14.30;59.10
58993;DHT22;44782;0.000;0.000;2022-11-30T02:43:22;14.30;59.10
58993;DHT22;44782;0.000;0.000;2022-11-30T02:46:15;14.30;59.10
58993;DHT22;44782;0.000;0.000;2022-11-30T02:48:48;14.30;58.90
58993;DHT22;44782;0.000;0.000;2022-11-30T02:51:06;14.30;59.00
58993;DHT22;44782;0.000;0.000;2022-11-30T02:53:24;14.30;59.20
58993;DHT22;44782;0.000;0.000;2022-11-30T02:55:39;14.20;59.10
58993;DHT22;44782;0.000;0.000;2022-11-30T02:57:55;14.30;59.10
58993;DHT22;44782;0.000;0.000;2022-11-30T03:00:12;14.30;59.20
58993;DHT22;44782;0.000;0.000;2022-11-30T03:02:28;14.20;59.10
58993;DHT22;44782;0.000;0.000;2022-11-30T03:04:43;14.20;59.10
58993;DHT22;44782;0.000;0.000;2022-11-30T03:06:59;14.20;59.10
58993;DHT22;44782;0.000;0.000;2022-11-30T03:09:14;14.20;59.80
58993;DHT22;44782;0.000;0.000;2022-11-30T03:11:30;14.20;59.10
58993;DHT22;44782;0.000;0.000;2022-11-30T03:13:46;14.20;59.10
58993;DHT22;44782;0.000;0.000;2022-11-30T03:16:09;14.20;59.10
58993;DHT22;44782;0.000;0.000;2022-11-30T03:18:25;14.20;59.10
58993;DHT22;44782;0.000;0.000;2022-11-30T03:20:41;14.20;59.10
58993;DHT22;44782;0.000;0.000;2022-11-30T03:23:01;14.20;59.10
58993;DHT22;44782;0.000;0.000;2022-11-30T03:25:16;14.20;59.10
58993;DHT22;44782;0.000;0.000;2022-11-30T03:27:32;14.10;59.10
58993;DHT22;44782;0.000;0.000;2022-11-30T03:29:47;14.10;59.10
58993;DHT22;44782;0.000;0.000;2022-11-30T03:34:18;14.10;59.80
58993;DHT22;44782;0.000;0.000;2022-11-30T03:36:34;14.10;59.20
58993;DHT22;44782;0.000;0.000;2022-11-30T03:38:50;14.10;59.20
58993;DHT22;44782;0.000;0.000;2022-11-30T03:41:09;14.10;59.20
58993;DHT22;44782;0.000;0.000;2022-11-30T03:43:25;14.10;59.20
58993;DHT22;44782;0.000;0.000;2022-11-30T03:45:44;14.10;59.20
58993;DHT22;44782;0.000;0.000;2022-11-30T03:47:59;14.10;59.20
58993;DHT22;44782;0.000;0.000;2022-11-30T03:50:15;14.00;59.30
58993;DHT22;44782;0.000;0.000;2022-11-30T03:52:31;14.00;59.20
58993;DHT22;44782;0.000;0.000;2022-11-30T03:54:46;14.00;59.20
58993;DHT22;44782;0.000;0.000;2022-11-30T03:57:02;14.00;59.20
58993;DHT22;44782;0.000;0.000;2022-11-30T03:59:18;14.00;60.00
58993;DHT22;44782;0.000;0.000;2022-11-30T04:01:33;14.00;59.20
58993;DHT22;44782;0.000;0.000;2022-11-30T04:03:51;14.00;59.20
58993;DHT22;44782;0.000;0.000;2022-11-30T04:06:08;14.00;59.20
58993;DHT22;44782;0.000;0.000;2022-11-30T04:08:25;14.00;59.30
58993;DHT22;44782;0.000;0.000;2022-11-30T04:10:41;14.00;59.20
58993;DHT22;44782;0.000;0.000;2022-11-30T04:12:56;14.00;59.20
58993;DHT22;44782;0.000;0.000;2022-11-30T04:15:12;13.90;59.20
58993;DHT22;44782;0.000;0.000;2022-11-30T04:17:27;13.90;59.20
58993;DHT22;44782;0.000;0.000;2022-11-30T04:19:43;13.90;59.20
58993;DHT22;44782;0.000;0.000;2022-11-30T04:21:58;13.90;59.30
58993;DHT22;44782;0.000;0.000;2022-11-30T04:24:14;13.90;59.30
58993;DHT22;44782;0.000;0.000;2022-11-30T04:26:30;13.90;59.30
58993;DHT22;44782;0.000;0.000;2022-11-30T04:28:45;13.90;59.30
58993;DHT22;44782;0.000;0.000;2022-11-30T04:31:01;13.90;59.30
58993;DHT22;44782;0.000;0.000;2022-11-30T04:33:17;13.90;59.30
58993;DHT22;44782;0.000;0.000;2022-11-30T04:35:33;13.90;59.30
58993;DHT22;44782;0.000;0.000;2022-11-30T04:37:48;13.90;59.30
58993;DHT22;44782;0.000;0.000;2022-11-30T04:40:05;13.90;59.30
58993;DHT22;44782;0.000;0.000;2022-11-30T04:42:21;13.80;59.30
58993;DHT22;44782;0.000;0.000;2022-11-30T04:44:36;13.80;59.30
58993;DHT22;44782;0.000;0.000;2022-11-30T04:46:52;13.80;59.30
58993;DHT22;44782;0.000;0.000;2022-11-30T04:49:08;13.80;59.30
58993;DHT22;44782;0.000;0.000;2022-11-30T04:51:23;13.80;59.30
58993;DHT22;44782;0.000;0.000;2022-11-30T04:53:39;13.80;59.30
58993;DHT22;44782;0.000;0.000;2022-11-30T04:55:55;13.80;59.40
58993;DHT22;44782;0.000;0.000;2022-11-30T04:58:10;13.80;59.30
58993;DHT22;44782;0.000;0.000;2022-11-30T05:00:26;13.80;59.40
58993;DHT22;44782;0.000;0.000;2022-11-30T05:02:42;13.80;59.30
58993;DHT22;44782;0.000;0.000;2022-11-30T05:04:58;13.80;59.40
58993;DHT22;44782;0.000;0.000;2022-11-30T05:07:13;13.80;59.40
58993;DHT22;44782;0.000;0.000;2022-11-30T05:09:29;13.80;59.40
58993;DHT22;44782;0.000;0.000;2022-11-30T05:11:44;13.80;59.40
58993;DHT22;44782;0.000;0.000;2022-11-30T05:14:01;13.80;59.50
58993;DHT22;44782;0.000;0.000;2022-11-30T05:16:16;13.70;59.40
58993;DHT22;44782;0.000;0.000;2022-11-30T05:18:32;13.70;59.40
58993;DHT22;44782;0.000;0.000;2022-11-30T05:20:49;13.70;59.40
58993;DHT22;44782;0.000;0.000;2022-11-30T05:23:05;13.70;59.40
58993;DHT22;44782;0.000;0.000;2022-11-30T05:25:20;13.70;59.50
58993;DHT22;44782;0.000;0.000;2022-11-30T05:27:36;13.70;59.40
58993;DHT22;44782;0.000;0.000;2022-11-30T05:29:52;13.70;59.40
58993;DHT22;44782;0.000;0.000;2022-11-30T05:32:07;13.70;59.50
58993;DHT22;44782;0.000;0.000;2022-11-30T05:34:23;13.70;59.40
58993;DHT22;44782;0.000;0.000;2022-11-30T05:36:39;13.70;59.50
58993;DHT22;44782;0.000;0.000;2022-11-30T05:38:54;13.70;59.40
58993;DHT22;44782;0.000;0.000;2022-11-30T05:41:10;13.70;59.50
58993;DHT22;44782;0.000;0.000;2022-11-30T05:43:26;13.70;59.50
58993;DHT22;44782;0.000;0.000;2022-11-30T05:45:42;13.70;59.50
58993;DHT22;44782;0.000;0.000;2022-11-30T05:47:57;13.70;59.50
58993;DHT22;44782;0.000;0.000;2022-11-30T05:50:13;13.70;59.50
58993;DHT22;44782;0.000;0.000;2022-11-30T05:52:28;13.70;59.50
58993;DHT22;44782;0.000;0.000;2022-11-30T05:54:44;13.70;59.50
58993;DHT22;44782;0.000;0.000;2022-11-30T05:57:00;13.70;59.50
58993;DHT22;44782;0.000;0.000;2022-11-30T05:59:15;13.70;59.50
58993;DHT22;44782;0.000;0.000;2022-11-30T06:01:31;13.80;59.60
58993;DHT22;44782;0.000;0.000;2022-11-30T06:03:47;13.80;59.60
58993;DHT22;44782;0.000;0.000;2022-11-30T06:06:03;13.80;59.50
58993;DHT22;44782;0.000;0.000;2022-11-30T06:08:19;13.80;59.50
58993;DHT22;44782;0.000;0.000;2022-11-30T06:10:35;13.90;59.50
58993;DHT22;44782;0.000;0.000;2022-11-30T06:12:51;13.90;59.50
58993;DHT22;44782;0.000;0.000;2022-11-30T06:15:07;14.00;59.50
58993;DHT22;44782;0.000;0.000;2022-11-30T06:17:23;14.00;59.50
58993;DHT22;44782;0.000;0.000;2022-11-30T06:19:38;14.00;59.40
58993;DHT22;44782;0.000;0.000;2022-11-30T06:21:54;14.10;59.40
58993;DHT22;44782;0.000;0.000;2022-11-30T06:24:09;14.10;59.30
58993;DHT22;44782;0.000;0.000;2022-11-30T06:26:25;14.10;59.20
58993;DHT22;44782;0.000;0.000;2022-11-30T06:28:41;14.10;59.20
58993;DHT22;44782;0.000;0.000;2022-11-30T06:31:00;14.20;59.20
58993;DHT22;44782;0.000;0.000;2022-11-30T06:33:21;14.20;59.10
58993;DHT22;44782;0.000;0.000;2022-11-30T06:35:42;14.20;59.00
58993;DHT22;44782;0.000;0.000;2022-11-30T06:37:58;14.20;59.00
58993;DHT22;44782;0.000;0.000;2022-11-30T06:40:14;14.20;59.00
58993;DHT22;44782;0.000;0.000;2022-11-30T06:42:32;14.20;59.00
58993;DHT22;44782;0.000;0.000;2022-11-30T06:44:47;14.20;58.90
58993;DHT22;44782;0.000;0.000;2022-11-30T06:47:03;14.30;58.90
58993;DHT22;44782;0.000;0.000;2022-11-30T06:49:19;14.30;58.90
58993;DHT22;44782;0.000;0.000;2022-11-30T06:51:34;14.20;58.80
58993;DHT22;44782;0.000;0.000;2022-11-30T06:53:51;14.20;58.80
58993;DHT22;44782;0.000;0.000;2022-11-30T06:56:08;14.20;58.70
58993;DHT22;44782;0.000;0.000;2022-11-30T06:58:23;14.30;58.80
58993;DHT22;44782;0.000;0.000;2022-11-30T07:00:39;14.30;59.50
58993;DHT22;44782;0.000;0.000;2022-11-30T07:02:55;14.30;58.70
58993;DHT22;44782;0.000;0.000;2022-11-30T07:05:10;14.30;58.70
58993;DHT22;44782;0.000;0.000;2022-11-30T07:07:30;14.30;58.70
58993;DHT22;44782;0.000;0.000;2022-11-30T07:09:45;14.30;58.60
58993;DHT22;44782;0.000;0.000;2022-11-30T07:12:02;14.30;58.70
58993;DHT22;44782;0.000;0.000;2022-11-30T07:14:18;14.30;58.60
58993;DHT22;44782;0.000;0.000;2022-11-30T07:16:33;14.30;58.60
58993;DHT22;44782;0.000;0.000;2022-11-30T07:18:49;14.30;58.60
58993;DHT22;44782;0.000;0.000;2022-11-30T07:21:05;14.20;58.60
58993;DHT22;44782;0.000;0.000;2022-11-30T07:23:21;14.30;58.60
58993;DHT22;44782;0.000;0.000;2022-11-30T07:25:59;14.30;58.60
58993;DHT22;44782;0.000;0.000;2022-11-30T07:28:22;14.20;58.50
58993;DHT22;44782;0.000;0.000;2022-11-30T07:30:37;14.30;58.70
58993;DHT22;44782;0.000;0.000;2022-11-30T07:32:53;14.30;58.60
58993;DHT22;44782;0.000;0.000;2022-11-30T07:35:08;14.20;58.60
58993;DHT22;44782;0.000;0.000;2022-11-30T07:37:25;14.30;58.60
58993;DHT22;44782;0.000;0.000;2022-11-30T07:39:40;14.20;58.50
58993;DHT22;44782;0.000;0.000;2022-11-30T07:41:56;14.20;58.50
58993;DHT22;44782;0.000;0.000;2022-11-30T07:44:12;14.20;58.50
58993;DHT22;44782;0.000;0.000;2022-11-30T07:46:27;14.20;58.50
58993;DHT22;44782;0.000;0.000;2022-11-30T07:48:43;14.20;58.50
58993;DHT22;44782;0.000;0.000;2022-11-30T07:51:20;14.20;58.50
58993;DHT22;44782;0.000;0.000;2022-11-30T07:53:36;14.20;58.30
58993;DHT22;44782;0.000;0.000;2022-11-30T07:55:51;14.20;58.60
58993;DHT22;44782;0.000;0.000;2022-11-30T07:58:07;14.20;58.60
58993;DHT22;44782;0.000;0.000;2022-11-30T08:00:24;14.20;58.60
58993;DHT22;44782;0.000;0.000;2022-11-30T08:02:40;14.20;58.60
58993;DHT22;44782;0.000;0.000;2022-11-30T08:04:55;14.20;58.60
58993;DHT22;44782;0.000;0.000;2022-11-30T08:07:13;14.20;58.60
58993;DHT22;44782;0.000;0.000;2022-11-30T08:09:29;14.10;58.50
58993;DHT22;44782;0.000;0.000;2022-11-30T08:11:44;14.10;58.50
58993;DHT22;44782;0.000;0.000;2022-11-30T08:14:01;14.10;58.60
58993;DHT22;44782;0.000;0.000;2022-11-30T08:16:20;14.10;58.60
58993;DHT22;44782;0.000;0.000;2022-11-30T08:18:36;14.10;58.50
58993;DHT22;44782;0.000;0.000;2022-11-30T08:21:05;14.10;58.60
58993;DHT22;44782;0.000;0.000;2022-11-30T08:23:21;14.10;58.60
58993;DHT22;44782;0.000;0.000;2022-11-30T08:25:37;14.10;58.70
58993;DHT22;44782;0.000;0.000;2022-11-30T08:27:52;14.10;58.70
58993;DHT22;44782;0.000;0.000;2022-11-30T08:30:08;14.00;58.70
58993;DHT22;44782;0.000;0.000;2022-11-30T08:32:24;14.10;58.80
58993;DHT22;44782;0.000;0.000;2022-11-30T08:34:39;14.00;58.70
58993;DHT22;44782;0.000;0.000;2022-11-30T08:36:55;14.00;58.70
58993;DHT22;44782;0.000;0.000;2022-11-30T08:39:11;14.00;58.80
